Disclaimer

Please do not use the information listed here in-flight or in-navigation, as they are not provided to us by the airports but are provided by volunteers, so they might be outdated.

Search


Regions


Airport information page

Radio informations:
MANTA TWR - 118.7 MHz
MANTA RDO - 126.9 MHz
Ground (GND) - 121.9 MHz
MANTA APP - 122.7 MHz

Airport informations:
Latitude: 00° 56' 45.88" S
Longitude: 080° 40' 43.71" W
Elevation: 48 feet - 15 meters
Operating hours: N/A
Operating agency: Military-civil joint use airport
Timezone: UTC-5
Fuel: Jet A1, without icing inhibitor.

Runway information:
05/23 - 9383 x 148 feet< - >2860 x 45 meters

Recent METARs:
SEMT 202100Z 21010KT 9999 FEW023 29/21 Q1008
SEMT 202200Z 24012KT 9999 FEW023 28/22 Q1009
SEMT 202200Z 24012KT 9999 FEW023 28/22 Q1009

Airport on the map: